sensor_id;sensor_type;location;lat;lon;timestamp;P1;durP1;ratioP1;P2;durP2;ratioP2
73563;SDS011;61834;50.196;6.454;2023-02-25T00:02:10;18.10;;;5.65;;
73563;SDS011;61834;50.196;6.454;2023-02-25T00:04:35;12.85;;;5.35;;
73563;SDS011;61834;50.196;6.454;2023-02-25T00:07:01;14.68;;;5.32;;
73563;SDS011;61834;50.196;6.454;2023-02-25T00:09:27;15.95;;;5.88;;
73563;SDS011;61834;50.196;6.454;2023-02-25T00:11:54;26.75;;;6.50;;
73563;SDS011;61834;50.196;6.454;2023-02-25T00:14:20;16.70;;;6.35;;
73563;SDS011;61834;50.196;6.454;2023-02-25T00:16:48;19.02;;;5.97;;
73563;SDS011;61834;50.196;6.454;2023-02-25T00:19:14;20.55;;;5.50;;
73563;SDS011;61834;50.196;6.454;2023-02-25T00:21:40;17.70;;;5.60;;
73563;SDS011;61834;50.196;6.454;2023-02-25T00:24:05;16.60;;;5.28;;
73563;SDS011;61834;50.196;6.454;2023-02-25T00:26:31;21.33;;;5.10;;
73563;SDS011;61834;50.196;6.454;2023-02-25T00:28:57;10.88;;;4.38;;
73563;SDS011;61834;50.196;6.454;2023-02-25T00:31:23;23.08;;;5.28;;
73563;SDS011;61834;50.196;6.454;2023-02-25T00:33:50;17.33;;;4.43;;
73563;SDS011;61834;50.196;6.454;2023-02-25T00:36:18;21.13;;;4.90;;
73563;SDS011;61834;50.196;6.454;2023-02-25T00:38:48;12.15;;;5.18;;
73563;SDS011;61834;50.196;6.454;2023-02-25T00:41:16;12.88;;;4.85;;
73563;SDS011;61834;50.196;6.454;2023-02-25T00:43:46;20.55;;;5.47;;
73563;SDS011;61834;50.196;6.454;2023-02-25T00:46:16;18.35;;;4.85;;
73563;SDS011;61834;50.196;6.454;2023-02-25T00:48:42;13.43;;;5.38;;
73563;SDS011;61834;50.196;6.454;2023-02-25T00:51:09;18.05;;;5.13;;
73563;SDS011;61834;50.196;6.454;2023-02-25T00:53:36;12.43;;;4.80;;
73563;SDS011;61834;50.196;6.454;2023-02-25T00:56:02;15.55;;;4.72;;
73563;SDS011;61834;50.196;6.454;2023-02-25T00:58:29;20.08;;;5.20;;
73563;SDS011;61834;50.196;6.454;2023-02-25T01:00:54;17.55;;;5.78;;
73563;SDS011;61834;50.196;6.454;2023-02-25T01:03:20;17.38;;;4.38;;
73563;SDS011;61834;50.196;6.454;2023-02-25T01:05:46;18.55;;;4.63;;
73563;SDS011;61834;50.196;6.454;2023-02-25T01:08:17;13.70;;;4.88;;
73563;SDS011;61834;50.196;6.454;2023-02-25T01:10:44;23.02;;;4.80;;
73563;SDS011;61834;50.196;6.454;2023-02-25T01:13:11;15.23;;;3.78;;
73563;SDS011;61834;50.196;6.454;2023-02-25T01:15:38;13.02;;;3.75;;
73563;SDS011;61834;50.196;6.454;2023-02-25T01:18:03;19.48;;;3.85;;
73563;SDS011;61834;50.196;6.454;2023-02-25T01:20:29;12.23;;;3.50;;
73563;SDS011;61834;50.196;6.454;2023-02-25T01:22:55;16.58;;;4.10;;
73563;SDS011;61834;50.196;6.454;2023-02-25T01:25:21;16.63;;;4.20;;
73563;SDS011;61834;50.196;6.454;2023-02-25T01:27:52;16.15;;;4.78;;
73563;SDS011;61834;50.196;6.454;2023-02-25T01:30:21;16.10;;;3.28;;
73563;SDS011;61834;50.196;6.454;2023-02-25T01:32:47;22.35;;;6.03;;
73563;SDS011;61834;50.196;6.454;2023-02-25T01:35:13;21.25;;;3.42;;
73563;SDS011;61834;50.196;6.454;2023-02-25T01:37:38;13.13;;;4.43;;
73563;SDS011;61834;50.196;6.454;2023-02-25T01:40:04;9.65;;;3.45;;
73563;SDS011;61834;50.196;6.454;2023-02-25T01:42:33;17.35;;;4.20;;
73563;SDS011;61834;50.196;6.454;2023-02-25T01:47:41;9.80;;;3.80;;
73563;SDS011;61834;50.196;6.454;2023-02-25T01:50:10;14.07;;;4.47;;
73563;SDS011;61834;50.196;6.454;2023-02-25T01:52:37;17.30;;;4.85;;
73563;SDS011;61834;50.196;6.454;2023-02-25T01:55:06;12.57;;;4.88;;
73563;SDS011;61834;50.196;6.454;2023-02-25T01:57:34;17.50;;;4.75;;
73563;SDS011;61834;50.196;6.454;2023-02-25T02:00:01;19.77;;;4.20;;
73563;SDS011;61834;50.196;6.454;2023-02-25T02:02:38;13.85;;;4.90;;
73563;SDS011;61834;50.196;6.454;2023-02-25T02:05:04;15.77;;;5.15;;
73563;SDS011;61834;50.196;6.454;2023-02-25T02:07:31;15.85;;;5.50;;
73563;SDS011;61834;50.196;6.454;2023-02-25T02:09:56;20.42;;;5.85;;
73563;SDS011;61834;50.196;6.454;2023-02-25T02:12:25;12.13;;;4.45;;
73563;SDS011;61834;50.196;6.454;2023-02-25T02:14:55;19.25;;;5.82;;
73563;SDS011;61834;50.196;6.454;2023-02-25T02:17:28;17.10;;;6.25;;
73563;SDS011;61834;50.196;6.454;2023-02-25T02:20:04;15.23;;;6.28;;
73563;SDS011;61834;50.196;6.454;2023-02-25T02:31:08;17.60;;;5.30;;
73563;SDS011;61834;50.196;6.454;2023-02-25T02:38:34;17.80;;;5.35;;
73563;SDS011;61834;50.196;6.454;2023-02-25T02:46:28;11.82;;;5.63;;
73563;SDS011;61834;50.196;6.454;2023-02-25T02:49:17;16.00;;;4.55;;
73563;SDS011;61834;50.196;6.454;2023-02-25T02:51:59;14.88;;;5.35;;
73563;SDS011;61834;50.196;6.454;2023-02-25T02:54:30;13.38;;;5.32;;
73563;SDS011;61834;50.196;6.454;2023-02-25T02:56:59;14.48;;;5.32;;
73563;SDS011;61834;50.196;6.454;2023-02-25T02:59:46;17.90;;;4.57;;
73563;SDS011;61834;50.196;6.454;2023-02-25T03:02:36;13.25;;;5.03;;
73563;SDS011;61834;50.196;6.454;2023-02-25T03:05:06;10.52;;;4.85;;
73563;SDS011;61834;50.196;6.454;2023-02-25T03:07:37;16.90;;;5.10;;
73563;SDS011;61834;50.196;6.454;2023-02-25T03:10:08;12.88;;;5.20;;
73563;SDS011;61834;50.196;6.454;2023-02-25T03:12:39;8.95;;;4.28;;
73563;SDS011;61834;50.196;6.454;2023-02-25T03:15:05;18.27;;;4.35;;
73563;SDS011;61834;50.196;6.454;2023-02-25T03:17:35;9.70;;;4.03;;
73563;SDS011;61834;50.196;6.454;2023-02-25T03:20:11;14.63;;;3.70;;
73563;SDS011;61834;50.196;6.454;2023-02-25T03:22:43;17.00;;;4.90;;
73563;SDS011;61834;50.196;6.454;2023-02-25T03:25:13;14.30;;;4.07;;
73563;SDS011;61834;50.196;6.454;2023-02-25T03:27:45;19.95;;;4.10;;
73563;SDS011;61834;50.196;6.454;2023-02-25T03:30:30;10.32;;;3.78;;
73563;SDS011;61834;50.196;6.454;2023-02-25T03:33:05;19.55;;;4.38;;
73563;SDS011;61834;50.196;6.454;2023-02-25T03:35:36;20.60;;;4.03;;
73563;SDS011;61834;50.196;6.454;2023-02-25T03:38:13;15.50;;;3.83;;
73563;SDS011;61834;50.196;6.454;2023-02-25T03:40:43;19.52;;;3.53;;
73563;SDS011;61834;50.196;6.454;2023-02-25T03:43:14;12.90;;;3.75;;
73563;SDS011;61834;50.196;6.454;2023-02-25T03:45:45;15.70;;;3.33;;
73563;SDS011;61834;50.196;6.454;2023-02-25T03:48:11;12.45;;;3.05;;
73563;SDS011;61834;50.196;6.454;2023-02-25T03:50:43;14.15;;;2.67;;
73563;SDS011;61834;50.196;6.454;2023-02-25T03:53:41;12.68;;;2.90;;
73563;SDS011;61834;50.196;6.454;2023-02-25T03:56:12;11.60;;;2.78;;
73563;SDS011;61834;50.196;6.454;2023-02-25T03:58:41;17.58;;;2.58;;
73563;SDS011;61834;50.196;6.454;2023-02-25T04:01:15;10.02;;;2.85;;
73563;SDS011;61834;50.196;6.454;2023-02-25T04:03:45;17.08;;;2.90;;
73563;SDS011;61834;50.196;6.454;2023-02-25T04:06:12;18.40;;;3.05;;
73563;SDS011;61834;50.196;6.454;2023-02-25T04:08:38;20.13;;;3.75;;
73563;SDS011;61834;50.196;6.454;2023-02-25T04:11:04;13.65;;;2.58;;
73563;SDS011;61834;50.196;6.454;2023-02-25T04:13:31;12.10;;;2.55;;
73563;SDS011;61834;50.196;6.454;2023-02-25T04:15:56;11.00;;;2.38;;
73563;SDS011;61834;50.196;6.454;2023-02-25T04:18:21;15.82;;;2.92;;
73563;SDS011;61834;50.196;6.454;2023-02-25T04:20:49;14.23;;;2.75;;
73563;SDS011;61834;50.196;6.454;2023-02-25T04:23:15;21.70;;;3.58;;
73563;SDS011;61834;50.196;6.454;2023-02-25T04:25:41;12.90;;;2.40;;
73563;SDS011;61834;50.196;6.454;2023-02-25T04:28:07;24.05;;;3.00;;
73563;SDS011;61834;50.196;6.454;2023-02-25T04:30:34;14.93;;;2.63;;
73563;SDS011;61834;50.196;6.454;2023-02-25T04:32:59;15.48;;;2.42;;
73563;SDS011;61834;50.196;6.454;2023-02-25T04:35:25;18.88;;;3.08;;
73563;SDS011;61834;50.196;6.454;2023-02-25T04:37:50;8.23;;;2.40;;
73563;SDS011;61834;50.196;6.454;2023-02-25T04:40:16;11.95;;;2.60;;
73563;SDS011;61834;50.196;6.454;2023-02-25T04:42:44;15.60;;;3.15;;
73563;SDS011;61834;50.196;6.454;2023-02-25T04:45:10;14.00;;;2.58;;
73563;SDS011;61834;50.196;6.454;2023-02-25T04:47:36;12.98;;;2.53;;
73563;SDS011;61834;50.196;6.454;2023-02-25T04:50:02;24.20;;;3.53;;
73563;SDS011;61834;50.196;6.454;2023-02-25T04:52:28;10.27;;;2.67;;
73563;SDS011;61834;50.196;6.454;2023-02-25T04:54:54;13.60;;;2.58;;
73563;SDS011;61834;50.196;6.454;2023-02-25T04:57:19;20.58;;;3.03;;
73563;SDS011;61834;50.196;6.454;2023-02-25T04:59:44;12.70;;;3.00;;
73563;SDS011;61834;50.196;6.454;2023-02-25T05:02:10;22.55;;;3.95;;
73563;SDS011;61834;50.196;6.454;2023-02-25T05:04:36;11.18;;;2.28;;
73563;SDS011;61834;50.196;6.454;2023-02-25T05:07:03;18.58;;;3.45;;
73563;SDS011;61834;50.196;6.454;2023-02-25T05:09:29;11.75;;;2.80;;
73563;SDS011;61834;50.196;6.454;2023-02-25T05:11:55;13.65;;;2.58;;
73563;SDS011;61834;50.196;6.454;2023-02-25T05:14:20;12.23;;;2.97;;
73563;SDS011;61834;50.196;6.454;2023-02-25T05:16:46;9.07;;;2.30;;
73563;SDS011;61834;50.196;6.454;2023-02-25T05:19:15;12.38;;;2.45;;
73563;SDS011;61834;50.196;6.454;2023-02-25T05:21:41;10.88;;;2.70;;
73563;SDS011;61834;50.196;6.454;2023-02-25T05:24:07;13.65;;;3.20;;
73563;SDS011;61834;50.196;6.454;2023-02-25T05:26:33;15.30;;;3.10;;
73563;SDS011;61834;50.196;6.454;2023-02-25T05:28:58;12.75;;;2.38;;
73563;SDS011;61834;50.196;6.454;2023-02-25T05:31:23;8.05;;;2.30;;
73563;SDS011;61834;50.196;6.454;2023-02-25T05:33:50;10.15;;;2.70;;
73563;SDS011;61834;50.196;6.454;2023-02-25T05:36:16;8.73;;;2.47;;
73563;SDS011;61834;50.196;6.454;2023-02-25T05:38:42;14.35;;;3.33;;
73563;SDS011;61834;50.196;6.454;2023-02-25T05:41:08;16.77;;;3.63;;
73563;SDS011;61834;50.196;6.454;2023-02-25T05:43:35;13.48;;;3.13;;
73563;SDS011;61834;50.196;6.454;2023-02-25T05:46:02;9.90;;;2.80;;
73563;SDS011;61834;50.196;6.454;2023-02-25T05:48:31;17.17;;;3.35;;
73563;SDS011;61834;50.196;6.454;2023-02-25T05:51:04;15.07;;;3.47;;
73563;SDS011;61834;50.196;6.454;2023-02-25T05:53:35;11.45;;;2.38;;
73563;SDS011;61834;50.196;6.454;2023-02-25T05:56:04;19.50;;;3.65;;
73563;SDS011;61834;50.196;6.454;2023-02-25T05:58:31;13.77;;;3.25;;
73563;SDS011;61834;50.196;6.454;2023-02-25T06:00:58;9.18;;;2.90;;
73563;SDS011;61834;50.196;6.454;2023-02-25T06:03:24;9.27;;;2.67;;
73563;SDS011;61834;50.196;6.454;2023-02-25T06:05:50;12.60;;;3.22;;
73563;SDS011;61834;50.196;6.454;2023-02-25T06:08:17;12.35;;;3.88;;
73563;SDS011;61834;50.196;6.454;2023-02-25T06:10:42;21.42;;;3.60;;
73563;SDS011;61834;50.196;6.454;2023-02-25T06:13:10;25.17;;;3.78;;
73563;SDS011;61834;50.196;6.454;2023-02-25T06:15:40;10.50;;;3.03;;
73563;SDS011;61834;50.196;6.454;2023-02-25T06:18:07;11.15;;;2.92;;
73563;SDS011;61834;50.196;6.454;2023-02-25T06:20:33;18.17;;;4.22;;
73563;SDS011;61834;50.196;6.454;2023-02-25T06:22:59;14.55;;;3.42;;
73563;SDS011;61834;50.196;6.454;2023-02-25T06:25:25;10.70;;;3.10;;
73563;SDS011;61834;50.196;6.454;2023-02-25T06:27:54;19.27;;;3.95;;
73563;SDS011;61834;50.196;6.454;2023-02-25T06:30:20;17.38;;;3.67;;
73563;SDS011;61834;50.196;6.454;2023-02-25T06:32:46;16.10;;;3.33;;
73563;SDS011;61834;50.196;6.454;2023-02-25T06:35:11;19.92;;;2.80;;
73563;SDS011;61834;50.196;6.454;2023-02-25T06:37:38;16.80;;;3.75;;
73563;SDS011;61834;50.196;6.454;2023-02-25T06:40:04;13.48;;;3.17;;
73563;SDS011;61834;50.196;6.454;2023-02-25T06:42:31;16.83;;;3.55;;
73563;SDS011;61834;50.196;6.454;2023-02-25T06:44:57;12.43;;;3.58;;
73563;SDS011;61834;50.196;6.454;2023-02-25T06:47:22;10.55;;;3.42;;
73563;SDS011;61834;50.196;6.454;2023-02-25T06:49:48;9.32;;;2.63;;
73563;SDS011;61834;50.196;6.454;2023-02-25T06:52:13;19.63;;;3.40;;
73563;SDS011;61834;50.196;6.454;2023-02-25T06:54:39;11.40;;;3.25;;
73563;SDS011;61834;50.196;6.454;2023-02-25T06:57:04;11.57;;;2.72;;
73563;SDS011;61834;50.196;6.454;2023-02-25T06:59:30;19.13;;;3.05;;
73563;SDS011;61834;50.196;6.454;2023-02-25T07:01:56;17.15;;;2.97;;
73563;SDS011;61834;50.196;6.454;2023-02-25T07:04:21;12.23;;;2.60;;
73563;SDS011;61834;50.196;6.454;2023-02-25T07:06:46;15.18;;;3.00;;
73563;SDS011;61834;50.196;6.454;2023-02-25T07:09:12;17.35;;;3.13;;
73563;SDS011;61834;50.196;6.454;2023-02-25T07:11:37;14.82;;;2.60;;
73563;SDS011;61834;50.196;6.454;2023-02-25T07:14:04;16.25;;;3.40;;
73563;SDS011;61834;50.196;6.454;2023-02-25T07:16:30;18.85;;;2.88;;
73563;SDS011;61834;50.196;6.454;2023-02-25T07:18:56;11.35;;;2.50;;
73563;SDS011;61834;50.196;6.454;2023-02-25T07:21:22;10.13;;;2.30;;
73563;SDS011;61834;50.196;6.454;2023-02-25T07:23:48;14.45;;;2.25;;
73563;SDS011;61834;50.196;6.454;2023-02-25T07:26:15;11.88;;;3.00;;
73563;SDS011;61834;50.196;6.454;2023-02-25T07:28:41;13.98;;;2.20;;
73563;SDS011;61834;50.196;6.454;2023-02-25T07:31:11;19.10;;;2.70;;
73563;SDS011;61834;50.196;6.454;2023-02-25T07:33:38;17.35;;;2.50;;
73563;SDS011;61834;50.196;6.454;2023-02-25T07:36:05;11.32;;;2.25;;
73563;SDS011;61834;50.196;6.454;2023-02-25T07:38:31;14.00;;;2.67;;
73563;SDS011;61834;50.196;6.454;2023-02-25T07:40:56;18.52;;;2.70;;
73563;SDS011;61834;50.196;6.454;2023-02-25T07:43:28;12.60;;;2.67;;
73563;SDS011;61834;50.196;6.454;2023-02-25T07:45:55;11.75;;;2.13;;
73563;SDS011;61834;50.196;6.454;2023-02-25T07:48:22;12.82;;;2.70;;
73563;SDS011;61834;50.196;6.454;2023-02-25T07:50:47;31.23;;;9.75;;
73563;SDS011;61834;50.196;6.454;2023-02-25T07:53:13;18.25;;;7.47;;
73563;SDS011;61834;50.196;6.454;2023-02-25T07:55:41;17.70;;;3.15;;
73563;SDS011;61834;50.196;6.454;2023-02-25T07:58:09;15.57;;;3.05;;
73563;SDS011;61834;50.196;6.454;2023-02-25T08:00:35;18.20;;;4.75;;
73563;SDS011;61834;50.196;6.454;2023-02-25T08:03:03;9.48;;;3.60;;
73563;SDS011;61834;50.196;6.454;2023-02-25T08:05:29;11.85;;;2.80;;
73563;SDS011;61834;50.196;6.454;2023-02-25T08:07:57;18.45;;;3.90;;
73563;SDS011;61834;50.196;6.454;2023-02-25T08:10:23;19.60;;;3.20;;
73563;SDS011;61834;50.196;6.454;2023-02-25T08:12:48;23.70;;;5.35;;
73563;SDS011;61834;50.196;6.454;2023-02-25T08:15:13;22.75;;;5.18;;
73563;SDS011;61834;50.196;6.454;2023-02-25T08:17:39;12.80;;;3.15;;
73563;SDS011;61834;50.196;6.454;2023-02-25T08:20:04;16.20;;;2.90;;
73563;SDS011;61834;50.196;6.454;2023-02-25T08:22:30;12.13;;;2.60;;
73563;SDS011;61834;50.196;6.454;2023-02-25T08:24:56;21.83;;;3.67;;
73563;SDS011;61834;50.196;6.454;2023-02-25T08:27:21;19.17;;;2.63;;
73563;SDS011;61834;50.196;6.454;2023-02-25T08:29:47;14.98;;;3.45;;
73563;SDS011;61834;50.196;6.454;2023-02-25T08:32:12;15.27;;;3.47;;
73563;SDS011;61834;50.196;6.454;2023-02-25T08:34:38;15.57;;;3.42;;
73563;SDS011;61834;50.196;6.454;2023-02-25T08:37:03;22.65;;;3.00;;
73563;SDS011;61834;50.196;6.454;2023-02-25T08:39:29;10.63;;;2.97;;
73563;SDS011;61834;50.196;6.454;2023-02-25T08:41:55;22.15;;;4.13;;
73563;SDS011;61834;50.196;6.454;2023-02-25T08:44:20;10.27;;;2.65;;
73563;SDS011;61834;50.196;6.454;2023-02-25T08:46:46;12.60;;;2.55;;
73563;SDS011;61834;50.196;6.454;2023-02-25T08:49:12;14.45;;;2.65;;
73563;SDS011;61834;50.196;6.454;2023-02-25T08:51:37;16.27;;;2.25;;
73563;SDS011;61834;50.196;6.454;2023-02-25T08:54:06;17.90;;;2.90;;
73563;SDS011;61834;50.196;6.454;2023-02-25T08:56:34;13.80;;;2.85;;
73563;SDS011;61834;50.196;6.454;2023-02-25T08:59:00;16.90;;;2.50;;
73563;SDS011;61834;50.196;6.454;2023-02-25T09:01:25;14.73;;;2.40;;
73563;SDS011;61834;50.196;6.454;2023-02-25T09:04:05;14.82;;;2.28;;
73563;SDS011;61834;50.196;6.454;2023-02-25T09:06:30;17.10;;;2.38;;
73563;SDS011;61834;50.196;6.454;2023-02-25T09:08:58;11.95;;;3.22;;
73563;SDS011;61834;50.196;6.454;2023-02-25T09:11:24;20.27;;;2.67;;
73563;SDS011;61834;50.196;6.454;2023-02-25T09:13:50;13.02;;;2.20;;
73563;SDS011;61834;50.196;6.454;2023-02-25T09:16:16;17.70;;;2.95;;
73563;SDS011;61834;50.196;6.454;2023-02-25T09:18:46;12.55;;;2.47;;
73563;SDS011;61834;50.196;6.454;2023-02-25T09:21:14;15.52;;;3.00;;
73563;SDS011;61834;50.196;6.454;2023-02-25T09:23:40;14.27;;;2.13;;
73563;SDS011;61834;50.196;6.454;2023-02-25T09:26:05;12.43;;;1.83;;
73563;SDS011;61834;50.196;6.454;2023-02-25T09:28:32;15.05;;;4.25;;
73563;SDS011;61834;50.196;6.454;2023-02-25T09:30:58;19.20;;;4.15;;
73563;SDS011;61834;50.196;6.454;2023-02-25T09:33:26;13.23;;;2.65;;
73563;SDS011;61834;50.196;6.454;2023-02-25T09:35:52;13.32;;;2.15;;
73563;SDS011;61834;50.196;6.454;2023-02-25T09:38:17;17.13;;;2.88;;
73563;SDS011;61834;50.196;6.454;2023-02-25T09:40:46;18.33;;;3.17;;
73563;SDS011;61834;50.196;6.454;2023-02-25T09:43:22;18.77;;;4.22;;
73563;SDS011;61834;50.196;6.454;2023-02-25T09:46:02;14.75;;;3.05;;
73563;SDS011;61834;50.196;6.454;2023-02-25T09:48:32;11.95;;;3.05;;
73563;SDS011;61834;50.196;6.454;2023-02-25T09:51:02;12.40;;;2.17;;
73563;SDS011;61834;50.196;6.454;2023-02-25T09:53:37;16.92;;;3.20;;
73563;SDS011;61834;50.196;6.454;2023-02-25T09:56:11;10.25;;;2.15;;
73563;SDS011;61834;50.196;6.454;2023-02-25T09:58:59;16.10;;;2.20;;
73563;SDS011;61834;50.196;6.454;2023-02-25T10:01:38;13.43;;;2.05;;
73563;SDS011;61834;50.196;6.454;2023-02-25T10:06:50;14.45;;;3.00;;
73563;SDS011;61834;50.196;6.454;2023-02-25T10:23:12;13.90;;;2.70;;
73563;SDS011;61834;50.196;6.454;2023-02-25T10:25:56;13.50;;;3.00;;
73563;SDS011;61834;50.196;6.454;2023-02-25T10:28:27;12.90;;;2.85;;
73563;SDS011;61834;50.196;6.454;2023-02-25T10:33:24;12.55;;;2.08;;
73563;SDS011;61834;50.196;6.454;2023-02-25T10:36:06;15.63;;;2.50;;
73563;SDS011;61834;50.196;6.454;2023-02-25T10:38:34;18.63;;;2.65;;
73563;SDS011;61834;50.196;6.454;2023-02-25T10:41:02;15.07;;;2.03;;
73563;SDS011;61834;50.196;6.454;2023-02-25T10:43:29;15.85;;;3.45;;
73563;SDS011;61834;50.196;6.454;2023-02-25T10:45:59;13.88;;;2.90;;
73563;SDS011;61834;50.196;6.454;2023-02-25T10:48:26;13.50;;;2.10;;
73563;SDS011;61834;50.196;6.454;2023-02-25T10:51:25;13.73;;;1.90;;
73563;SDS011;61834;50.196;6.454;2023-02-25T10:56:21;13.32;;;1.90;;
73563;SDS011;61834;50.196;6.454;2023-02-25T11:01:36;10.48;;;2.80;;
73563;SDS011;61834;50.196;6.454;2023-02-25T11:04:04;17.95;;;3.25;;
73563;SDS011;61834;50.196;6.454;2023-02-25T11:06:36;12.50;;;1.50;;
73563;SDS011;61834;50.196;6.454;2023-02-25T11:14:28;19.80;;;2.30;;
73563;SDS011;61834;50.196;6.454;2023-02-25T11:17:01;13.98;;;2.15;;
73563;SDS011;61834;50.196;6.454;2023-02-25T11:19:30;16.33;;;2.55;;
73563;SDS011;61834;50.196;6.454;2023-02-25T11:22:09;15.50;;;3.03;;
73563;SDS011;61834;50.196;6.454;2023-02-25T11:24:41;15.43;;;2.53;;
73563;SDS011;61834;50.196;6.454;2023-02-25T11:27:16;11.95;;;2.35;;
73563;SDS011;61834;50.196;6.454;2023-02-25T11:29:49;12.85;;;2.20;;
73563;SDS011;61834;50.196;6.454;2023-02-25T11:32:16;15.93;;;2.45;;
73563;SDS011;61834;50.196;6.454;2023-02-25T11:40:22;10.48;;;2.50;;
73563;SDS011;61834;50.196;6.454;2023-02-25T11:54:26;7.70;;;1.50;;
73563;SDS011;61834;50.196;6.454;2023-02-25T11:59:37;11.02;;;2.00;;
73563;SDS011;61834;50.196;6.454;2023-02-25T12:10:41;7.22;;;1.30;;
73563;SDS011;61834;50.196;6.454;2023-02-25T12:24:40;11.77;;;1.95;;
73563;SDS011;61834;50.196;6.454;2023-02-25T12:42:04;14.27;;;1.60;;
73563;SDS011;61834;50.196;6.454;2023-02-25T12:45:24;10.63;;;2.20;;
73563;SDS011;61834;50.196;6.454;2023-02-25T12:58:25;11.60;;;1.27;;
73563;SDS011;61834;50.196;6.454;2023-02-25T13:21:50;5.75;;;1.10;;
73563;SDS011;61834;50.196;6.454;2023-02-25T13:30:11;2.28;;;0.75;;
73563;SDS011;61834;50.196;6.454;2023-02-25T13:38:07;1.95;;;1.10;;
73563;SDS011;61834;50.196;6.454;2023-02-25T13:40:54;5.60;;;2.77;;
73563;SDS011;61834;50.196;6.454;2023-02-25T13:43:37;7.97;;;1.95;;
73563;SDS011;61834;50.196;6.454;2023-02-25T13:46:26;3.60;;;1.42;;
73563;SDS011;61834;50.196;6.454;2023-02-25T14:17:11;10.68;;;3.80;;
73563;SDS011;61834;50.196;6.454;2023-02-25T14:28:21;10.10;;;4.38;;
73563;SDS011;61834;50.196;6.454;2023-02-25T14:34:01;13.57;;;3.80;;
73563;SDS011;61834;50.196;6.454;2023-02-25T14:36:52;14.40;;;5.20;;
73563;SDS011;61834;50.196;6.454;2023-02-25T14:39:27;21.27;;;8.07;;
73563;SDS011;61834;50.196;6.454;2023-02-25T14:42:07;9.38;;;3.85;;
73563;SDS011;61834;50.196;6.454;2023-02-25T14:44:45;11.25;;;4.57;;
73563;SDS011;61834;50.196;6.454;2023-02-25T14:47:25;8.30;;;3.08;;
73563;SDS011;61834;50.196;6.454;2023-02-25T14:52:50;5.13;;;2.38;;
73563;SDS011;61834;50.196;6.454;2023-02-25T15:01:14;7.03;;;3.50;;
73563;SDS011;61834;50.196;6.454;2023-02-25T15:06:58;6.60;;;2.38;;
73563;SDS011;61834;50.196;6.454;2023-02-25T15:15:23;3.85;;;1.48;;
73563;SDS011;61834;50.196;6.454;2023-02-25T15:20:46;7.80;;;1.65;;
73563;SDS011;61834;50.196;6.454;2023-02-25T15:23:12;7.15;;;1.30;;
73563;SDS011;61834;50.196;6.454;2023-02-25T15:33:25;8.10;;;1.67;;
73563;SDS011;61834;50.196;6.454;2023-02-25T15:35:58;11.18;;;1.80;;
73563;SDS011;61834;50.196;6.454;2023-02-25T15:38:38;8.30;;;1.58;;
73563;SDS011;61834;50.196;6.454;2023-02-25T15:51:51;7.80;;;1.50;;
73563;SDS011;61834;50.196;6.454;2023-02-25T15:56:54;7.63;;;1.95;;
73563;SDS011;61834;50.196;6.454;2023-02-25T16:07:30;7.30;;;2.78;;
73563;SDS011;61834;50.196;6.454;2023-02-25T16:10:06;9.55;;;1.20;;
73563;SDS011;61834;50.196;6.454;2023-02-25T16:12:43;6.03;;;1.70;;
73563;SDS011;61834;50.196;6.454;2023-02-25T16:15:13;11.23;;;1.27;;
73563;SDS011;61834;50.196;6.454;2023-02-25T16:17:48;10.35;;;3.20;;
73563;SDS011;61834;50.196;6.454;2023-02-25T16:20:37;10.07;;;1.33;;
73563;SDS011;61834;50.196;6.454;2023-02-25T16:23:10;8.43;;;1.20;;
73563;SDS011;61834;50.196;6.454;2023-02-25T16:25:50;5.15;;;1.38;;
73563;SDS011;61834;50.196;6.454;2023-02-25T16:28:59;5.53;;;0.95;;
73563;SDS011;61834;50.196;6.454;2023-02-25T16:31:28;11.48;;;1.83;;
73563;SDS011;61834;50.196;6.454;2023-02-25T16:39:40;11.77;;;1.65;;
73563;SDS011;61834;50.196;6.454;2023-02-25T16:42:10;16.58;;;1.38;;
73563;SDS011;61834;50.196;6.454;2023-02-25T16:44:37;9.48;;;1.42;;
73563;SDS011;61834;50.196;6.454;2023-02-25T16:47:26;16.10;;;1.75;;
73563;SDS011;61834;50.196;6.454;2023-02-25T16:50:02;13.20;;;1.70;;
73563;SDS011;61834;50.196;6.454;2023-02-25T16:52:40;5.38;;;1.40;;
73563;SDS011;61834;50.196;6.454;2023-02-25T16:55:15;8.00;;;1.40;;
73563;SDS011;61834;50.196;6.454;2023-02-25T17:00:54;15.07;;;1.90;;
73563;SDS011;61834;50.196;6.454;2023-02-25T17:03:25;6.65;;;1.63;;
73563;SDS011;61834;50.196;6.454;2023-02-25T17:06:09;9.07;;;2.30;;
73563;SDS011;61834;50.196;6.454;2023-02-25T17:08:47;11.80;;;2.05;;
73563;SDS011;61834;50.196;6.454;2023-02-25T17:11:15;11.45;;;2.15;;
73563;SDS011;61834;50.196;6.454;2023-02-25T17:13:43;5.78;;;2.40;;
73563;SDS011;61834;50.196;6.454;2023-02-25T17:16:26;8.23;;;2.40;;
73563;SDS011;61834;50.196;6.454;2023-02-25T17:18:56;7.18;;;2.47;;
73563;SDS011;61834;50.196;6.454;2023-02-25T17:21:26;14.05;;;3.10;;
73563;SDS011;61834;50.196;6.454;2023-02-25T17:23:55;11.05;;;2.83;;
73563;SDS011;61834;50.196;6.454;2023-02-25T17:26:22;13.20;;;3.15;;
73563;SDS011;61834;50.196;6.454;2023-02-25T17:28:50;8.90;;;2.47;;
73563;SDS011;61834;50.196;6.454;2023-02-25T17:31:19;10.32;;;3.15;;
73563;SDS011;61834;50.196;6.454;2023-02-25T17:33:57;11.45;;;3.15;;
73563;SDS011;61834;50.196;6.454;2023-02-25T17:36:26;8.40;;;2.67;;
73563;SDS011;61834;50.196;6.454;2023-02-25T17:38:55;12.77;;;3.03;;
73563;SDS011;61834;50.196;6.454;2023-02-25T17:41:23;9.20;;;2.55;;
73563;SDS011;61834;50.196;6.454;2023-02-25T17:43:49;9.25;;;2.70;;
73563;SDS011;61834;50.196;6.454;2023-02-25T17:46:22;11.68;;;3.00;;
73563;SDS011;61834;50.196;6.454;2023-02-25T17:48:53;13.90;;;2.78;;
73563;SDS011;61834;50.196;6.454;2023-02-25T17:51:26;18.75;;;2.63;;
73563;SDS011;61834;50.196;6.454;2023-02-25T17:53:58;18.02;;;6.72;;
73563;SDS011;61834;50.196;6.454;2023-02-25T17:56:30;18.25;;;5.80;;
73563;SDS011;61834;50.196;6.454;2023-02-25T17:59:10;20.10;;;4.55;;
73563;SDS011;61834;50.196;6.454;2023-02-25T18:01:59;17.10;;;5.65;;
73563;SDS011;61834;50.196;6.454;2023-02-25T18:04:33;11.48;;;3.22;;
73563;SDS011;61834;50.196;6.454;2023-02-25T18:07:20;8.18;;;2.25;;
73563;SDS011;61834;50.196;6.454;2023-02-25T18:09:55;11.80;;;2.03;;
73563;SDS011;61834;50.196;6.454;2023-02-25T18:12:28;16.60;;;2.10;;
73563;SDS011;61834;50.196;6.454;2023-02-25T18:14:58;4.65;;;1.50;;
73563;SDS011;61834;50.196;6.454;2023-02-25T18:17:27;5.00;;;1.70;;
73563;SDS011;61834;50.196;6.454;2023-02-25T18:19:56;12.30;;;2.08;;
73563;SDS011;61834;50.196;6.454;2023-02-25T18:22:36;8.45;;;2.03;;
73563;SDS011;61834;50.196;6.454;2023-02-25T18:25:07;7.43;;;1.95;;
73563;SDS011;61834;50.196;6.454;2023-02-25T18:27:59;10.15;;;1.65;;
73563;SDS011;61834;50.196;6.454;2023-02-25T18:30:26;10.13;;;1.65;;
73563;SDS011;61834;50.196;6.454;2023-02-25T18:32:53;5.68;;;1.42;;
73563;SDS011;61834;50.196;6.454;2023-02-25T18:35:21;7.95;;;1.73;;
73563;SDS011;61834;50.196;6.454;2023-02-25T18:37:48;9.20;;;1.83;;
73563;SDS011;61834;50.196;6.454;2023-02-25T18:40:16;6.22;;;1.60;;
73563;SDS011;61834;50.196;6.454;2023-02-25T18:42:48;9.45;;;2.00;;
73563;SDS011;61834;50.196;6.454;2023-02-25T18:45:15;8.95;;;1.65;;
73563;SDS011;61834;50.196;6.454;2023-02-25T18:47:42;10.45;;;1.83;;
73563;SDS011;61834;50.196;6.454;2023-02-25T18:50:08;9.93;;;2.10;;
73563;SDS011;61834;50.196;6.454;2023-02-25T18:52:34;3.63;;;1.38;;
73563;SDS011;61834;50.196;6.454;2023-02-25T18:55:00;7.38;;;1.77;;
73563;SDS011;61834;50.196;6.454;2023-02-25T18:57:25;8.27;;;1.85;;
73563;SDS011;61834;50.196;6.454;2023-02-25T18:59:53;9.52;;;1.42;;